Time;durP1;ratioP1;P1;durP2;ratioP2;P2;SDS_P1;SDS_P2;PMS_P1;PMS_P2;Temp;Humidity;BMP_temperature;BMP_pressure;BME280_temperature;BME280_humidity;BME280_pressure;Samples;Min_cycle;Max_cycle;Signal;HPM_P1;HPM_P2
2021/12/11 00:01:19;;;;;;;109.55;61.95;;;;;;;0.89;95.19;96822.66;10336887;28;20057;-58
2021/12/11 00:06:23;;;;;;;149.30;85.50;;;;;;;0.95;95.18;96824.50;10336066;28;20064;-58
2021/12/11 00:11:35;;;;;;;127.25;75.93;;;;;;;1.01;95.24;96833.97;10336009;28;20053;-58
2021/12/11 00:16:36;;;;;;;167.82;96.35;;;;;;;0.98;95.76;96824.53;10336127;28;20476;-57
2021/12/11 00:21:36;;;;;;;156.07;93.03;;;;;;;1.04;95.49;96836.59;10336538;28;20057;-58
2021/12/11 00:27:03;;;;;;;386.73;194.25;;;;;;;1.03;95.41;96815.28;10334540;28;20490;-58
2021/12/11 00:32:21;;;;;;;191.45;104.03;;;;;;;1.04;95.28;96811.06;10331918;28;20073;-57
2021/12/11 00:37:23;;;;;;;140.27;78.82;;;;;;;1.04;95.01;96828.94;10295242;28;20061;-58
2021/12/11 00:42:31;;;;;;;162.65;83.47;;;;;;;1.06;95.27;96846.03;10294601;28;20064;-58
2021/12/11 00:47:32;;;;;;;81.45;46.42;;;;;;;1.05;95.41;96843.44;10294395;28;20068;-58
2021/12/11 00:52:37;;;;;;;82.75;47.45;;;;;;;1.11;95.11;96854.66;10294543;28;20133;-58
2021/12/11 00:57:36;;;;;;;88.95;50.47;;;;;;;1.14;95.13;96874.28;10293728;28;20078;-58
2021/12/11 01:02:36;;;;;;;70.38;40.92;;;;;;;1.11;95.32;96856.34;10293634;28;20022;-58
2021/12/11 01:07:35;;;;;;;;;;;;;;;1.11;95.31;96834.22;10294881;28;20065;-58
2021/12/11 01:12:46;;;;;;;46.40;27.02;;;;;;;1.14;95.43;96832.56;10293266;28;19917;-58
2021/12/11 01:18:21;;;;;;;39.72;20.75;;;;;;;1.18;95.24;96824.97;10293448;28;20527;-58
2021/12/11 01:28:34;;;;;;;32.78;16.20;;;;;;;1.12;95.69;96804.41;10293770;28;20061;-58
2021/12/11 01:33:33;;;;;;;38.00;19.02;;;;;;;1.20;95.63;96802.88;10292469;28;20058;-58
2021/12/11 01:38:32;;;;;;;64.68;36.20;;;;;;;0.97;95.91;96794.75;10290877;28;20092;-58
2021/12/11 01:43:34;;;;;;;50.15;30.70;;;;;;;1.06;96.08;96805.16;10292816;28;20057;-58
2021/12/11 01:48:41;;;;;;;14.40;7.40;;;;;;;1.08;95.94;96783.06;10291608;28;20061;-59
2021/12/11 01:53:45;;;;;;;38.28;21.67;;;;;;;1.43;95.95;96784.56;10292369;28;20069;-60
2021/12/11 01:58:49;;;;;;;45.10;24.85;;;;;;;1.48;95.78;96788.94;10292393;28;20096;-59
2021/12/11 02:03:53;;;;;;;39.95;23.75;;;;;;;1.50;95.54;96781.28;10293356;28;20150;-59
2021/12/11 02:08:52;;;;;;;44.15;25.75;;;;;;;1.55;95.06;96784.78;10290634;28;20065;-58
2021/12/11 02:13:58;;;;;;;48.30;28.42;;;;;;;1.49;95.11;96759.13;10292055;28;20030;-58
2021/12/11 02:19:07;;;;;;;52.25;29.98;;;;;;;1.35;95.31;96763.97;10292127;28;20061;-58
2021/12/11 02:24:10;;;;;;;52.95;29.17;;;;;;;1.44;95.10;96763.28;10290715;28;20092;-58
2021/12/11 02:29:24;;;;;;;55.03;32.55;;;;;;;1.45;94.96;96755.63;10292189;28;20082;-58
2021/12/11 02:34:29;;;;;;;66.97;39.70;;;;;;;1.30;94.61;96768.16;10290114;28;20512;-57
2021/12/11 02:39:32;;;;;;;51.58;30.75;;;;;;;1.27;94.80;96779.16;10291647;28;20480;-57
2021/12/11 02:44:43;;;;;;;52.78;29.58;;;;;;;1.20;94.91;96769.66;10291193;28;20065;-57
2021/12/11 02:50:00;;;;;;;46.97;28.00;;;;;;;1.10;94.57;96762.63;10292430;28;20473;-58
2021/12/11 02:55:25;;;;;;;44.13;26.75;;;;;;;1.09;94.85;96784.75;10298423;28;20076;-57
2021/12/11 03:00:32;;;;;;;56.65;33.97;;;;;;;1.08;94.74;96777.06;10298036;28;20543;-58
2021/12/11 03:05:50;;;;;;;72.93;43.88;;;;;;;1.03;94.83;96774.41;10298925;28;20072;-57
2021/12/11 03:10:57;;;;;;;59.08;35.15;;;;;;;1.02;94.89;96767.59;10298170;28;20061;-58
2021/12/11 03:15:56;;;;;;;54.63;32.03;;;;;;;1.10;95.10;96760.94;10297893;28;20065;-57
2021/12/11 03:20:55;;;;;;;56.10;34.00;;;;;;;1.15;94.75;96755.91;10296600;28;20548;-58
2021/12/11 03:25:54;;;;;;;56.80;32.70;;;;;;;1.08;95.09;96748.94;10297492;28;20471;-57
2021/12/11 03:30:58;;;;;;;51.40;30.55;;;;;;;1.16;94.70;96738.91;10296871;28;20061;-57
2021/12/11 03:35:58;;;;;;;56.03;32.85;;;;;;;1.20;94.72;96749.22;10297285;28;20054;-57
2021/12/11 03:40:57;;;;;;;72.63;39.35;;;;;;;1.32;94.68;96736.66;10296649;28;20475;-58
2021/12/11 03:46:01;;;;;;;;;;;;;;;1.41;94.56;96735.09;10297442;28;20057;-58
2021/12/11 03:51:11;;;;;;;77.78;41.72;;;;;;;1.26;94.30;96733.97;10296597;28;19968;-58
2021/12/11 03:56:12;;;;;;;70.13;40.42;;;;;;;1.20;95.03;96710.88;10296668;28;20104;-57
2021/12/11 04:01:18;;;;;;;62.90;36.95;;;;;;;1.25;94.70;96703.31;10295967;28;20076;-57
2021/12/11 04:06:20;;;;;;;77.93;43.22;;;;;;;1.27;94.73;96687.16;10324205;28;20111;-57
2021/12/11 04:11:25;;;;;;;77.53;43.17;;;;;;;1.38;94.96;96704.38;10336879;28;20060;-58
2021/12/11 04:16:25;;;;;;;65.55;40.17;;;;;;;1.49;94.73;96720.78;10336231;28;20060;-57
2021/12/11 04:21:24;;;;;;;61.72;36.10;;;;;;;1.59;94.64;96714.97;10336020;28;20068;-57
2021/12/11 04:26:23;;;;;;;;;;;;;;;1.73;94.20;96722.88;10335136;28;20574;-57
2021/12/11 04:31:28;;;;;;;109.93;57.05;;;;;;;1.86;94.55;96724.81;10335790;28;20219;-57
2021/12/11 04:36:31;;;;;;;80.88;43.95;;;;;;;1.96;94.40;96726.69;10297421;28;20488;-57
2021/12/11 04:41:39;;;;;;;149.95;82.72;;;;;;;1.96;94.42;96742.03;10295027;28;20804;-57
2021/12/11 04:46:38;;;;;;;64.07;41.03;;;;;;;2.03;94.15;96722.53;10294668;28;20500;-57
2021/12/11 05:07:00;;;;;;;55.33;34.88;;;;;;;2.27;94.63;96749.34;10326287;28;20061;-57
2021/12/11 05:12:14;;;;;;;59.67;36.95;;;;;;;2.36;94.08;96758.00;10331348;28;20112;-57
2021/12/11 05:17:14;;;;;;;53.63;34.15;;;;;;;2.26;93.11;96732.28;10332198;28;20065;-57
2021/12/11 05:22:15;;;;;;;45.00;28.38;;;;;;;2.24;94.00;96746.75;10331412;28;20056;-57
2021/12/11 05:27:15;;;;;;;54.78;32.78;;;;;;;2.22;93.93;96733.91;10330460;28;20084;-72
2021/12/11 05:32:18;;;;;;;47.00;31.63;;;;;;;2.21;93.98;96721.06;10331934;28;20064;-57
2021/12/11 05:37:18;;;;;;;40.00;25.50;;;;;;;2.30;93.86;96721.22;10331587;28;20067;-57
2021/12/11 05:42:18;;;;;;;51.50;35.45;;;;;;;2.29;94.00;96709.25;10331592;28;20064;-58
2021/12/11 05:47:17;;;;;;;56.95;31.85;;;;;;;2.41;94.60;96706.03;10328262;28;20053;-57
2021/12/11 05:52:17;;;;;;;48.55;31.20;;;;;;;2.46;93.46;96699.25;10327809;28;20117;-58
2021/12/11 05:57:18;;;;;;;51.08;32.80;;;;;;;2.55;94.10;96733.53;10327283;28;20073;-57
2021/12/11 06:02:26;;;;;;;52.35;34.10;;;;;;;2.58;94.29;96733.59;10333513;28;20503;-58
2021/12/11 06:07:28;;;;;;;52.13;34.47;;;;;;;2.67;93.51;96711.50;10329651;28;20099;-57
2021/12/11 06:12:28;;;;;;;72.88;45.35;;;;;;;2.67;94.06;96720.03;10330631;28;20064;-58
2021/12/11 06:17:30;;;;;;;55.42;37.85;;;;;;;2.80;93.72;96744.13;10330942;28;20511;-58
2021/12/11 06:22:32;;;;;;;62.10;40.67;;;;;;;2.91;94.22;96747.69;10330579;28;20060;-58
2021/12/11 06:27:32;;;;;;;48.13;33.15;;;;;;;3.04;94.08;96758.09;10337065;28;20135;-58
2021/12/11 06:32:30;;;;;;;73.95;51.05;;;;;;;3.08;94.05;96745.31;10336197;28;20118;-57
2021/12/11 06:37:29;;;;;;;82.18;53.42;;;;;;;3.13;93.79;96738.53;10337786;28;20034;-58
2021/12/11 06:42:29;;;;;;;74.45;45.50;;;;;;;3.37;93.78;96740.50;10338371;28;20049;-57
2021/12/11 06:47:28;;;;;;;;;;;;;;;3.51;94.27;96750.06;10337072;28;20061;-57
2021/12/11 06:52:27;;;;;;;55.08;36.95;;;;;;;3.70;94.11;96744.28;10336025;28;19999;-58
2021/12/11 06:57:26;;;;;;;;;;;;;;;3.88;93.76;96758.13;10338353;28;20469;-58
2021/12/11 07:02:25;;;;;;;56.97;41.83;;;;;;;4.06;93.57;96760.88;10337700;28;20303;-57
2021/12/11 07:07:31;;;;;;;82.93;58.90;;;;;;;4.21;93.40;96767.81;10337572;28;20036;-58
2021/12/11 07:12:30;;;;;;;97.65;69.25;;;;;;;4.40;93.92;96755.97;10336661;28;20060;-58
2021/12/11 07:17:29;;;;;;;102.32;70.07;;;;;;;4.61;93.75;96761.25;10337215;28;20053;-59
2021/12/11 07:22:28;;;;;;;111.28;80.03;;;;;;;4.75;92.96;96753.63;10336752;28;20055;-58
2021/12/11 07:27:28;;;;;;;147.40;102.03;;;;;;;4.79;92.56;96760.53;10334824;28;20045;-57
2021/12/11 07:32:27;;;;;;;141.68;97.80;;;;;;;4.88;92.78;96749.44;10336036;28;20053;-58
2021/12/11 07:37:27;;;;;;;139.18;92.82;;;;;;;5.02;92.87;96757.25;10335403;28;20057;-56
2021/12/11 07:42:26;;;;;;;131.45;94.15;;;;;;;5.12;93.01;96753.88;10331073;28;20067;-58
2021/12/11 07:47:25;;;;;;;165.18;115.35;;;;;;;5.20;92.80;96769.31;10336177;28;20037;-58
2021/12/11 07:52:24;;;;;;;187.95;130.77;;;;;;;5.30;92.19;96760.81;10333116;28;20073;-58
2021/12/11 07:57:23;;;;;;;191.35;133.10;;;;;;;5.38;92.52;96756.53;10334486;28;20085;-56
2021/12/11 08:02:22;;;;;;;283.05;204.82;;;;;;;5.48;92.00;96763.41;10335733;28;20500;-56
2021/12/11 08:07:21;;;;;;;293.52;214.07;;;;;;;5.57;91.58;96756.59;10333543;28;20496;-56
2021/12/11 08:12:20;;;;;;;287.30;208.32;;;;;;;5.70;91.92;96758.34;10333077;28;20500;-57
2021/12/11 08:17:20;;;;;;;193.98;137.30;;;;;;;5.84;91.57;96761.78;10324935;28;20064;-56
2021/12/11 08:22:19;;;;;;;180.65;131.25;;;;;;;6.03;92.35;96767.81;10328076;28;20072;-57
2021/12/11 08:27:21;;;;;;;130.73;95.20;;;;;;;6.19;91.31;96771.28;10331121;28;20033;-56
2021/12/11 08:32:22;;;;;;;92.80;66.45;;;;;;;6.37;91.31;96752.38;10331424;28;20072;-56
2021/12/11 08:37:23;;;;;;;37.00;27.05;;;;;;;6.55;91.26;96747.19;10331555;28;20060;-57
2021/12/11 08:42:25;;;;;;;43.10;29.00;;;;;;;6.75;91.00;96752.34;10331007;28;20053;-57
2021/12/11 08:47:25;;;;;;;34.03;23.92;;;;;;;7.04;90.21;96748.81;10331460;28;20057;-57
2021/12/11 08:52:32;;;;;;;16.13;11.52;;;;;;;7.06;89.20;96741.94;10332430;28;20190;-57
2021/12/11 08:57:36;;;;;;;10.80;6.47;;;;;;;7.34;85.73;96740.09;10331606;28;20085;-57
2021/12/11 09:02:40;;;;;;;11.40;7.53;;;;;;;7.38;85.01;96748.66;10331914;28;20060;-57
2021/12/11 09:07:46;;;;;;;9.75;6.68;;;;;;;7.51;83.50;96739.19;10331222;28;20071;-57
2021/12/11 09:13:17;;;;;;;10.07;6.72;;;;;;;7.49;82.25;96723.69;10331487;28;20061;-57
2021/12/11 09:18:54;;;;;;;9.77;7.22;;;;;;;7.79;84.51;96732.13;10319155;28;20072;-57
2021/12/11 09:24:04;;;;;;;17.17;11.60;;;;;;;7.75;81.00;96717.53;10299523;28;20087;-57
2021/12/11 09:29:14;;;;;;;14.25;10.70;;;;;;;7.88;79.41;96707.09;10331385;28;20056;-57
2021/12/11 09:34:18;;;;;;;11.27;7.82;;;;;;;8.06;80.14;96706.09;10330204;28;20141;-56
2021/12/11 09:39:44;;;;;;;14.65;10.77;;;;;;;8.29;78.40;96705.91;10330778;28;20053;-56
2021/12/11 09:44:46;;;;;;;13.20;8.32;;;;;;;8.18;75.77;96712.91;10330193;28;20068;-57
2021/12/11 09:49:54;;;;;;;24.00;16.10;;;;;;;8.29;77.55;96687.81;10330501;28;20068;-56
2021/12/11 09:55:04;;;;;;;12.20;7.97;;;;;;;8.37;74.61;96699.81;10322422;28;20060;-56
2021/12/11 10:00:20;;;;;;;15.48;10.80;;;;;;;8.34;74.81;96695.53;10329980;28;20100;-56
2021/12/11 10:05:35;;;;;;;8.77;6.00;;;;;;;8.37;75.40;96692.91;10329797;28;20061;-56
2021/12/11 10:10:34;;;;;;;9.57;7.25;;;;;;;8.46;72.04;96687.66;10329465;28;20057;-56
2021/12/11 10:15:36;;;;;;;8.57;5.75;;;;;;;8.29;70.11;96668.84;10329997;28;20026;-57
2021/12/11 10:20:42;;;;;;;8.75;5.53;;;;;;;8.14;70.40;96693.13;10329490;28;20053;-57
2021/12/11 10:25:42;;;;;;;9.65;5.63;;;;;;;7.95;69.65;96684.66;10329090;28;20064;-57
2021/12/11 10:30:49;;;;;;;12.20;7.32;;;;;;;7.39;68.67;96617.03;10329246;28;20057;-57
2021/12/11 10:35:52;;;;;;;5.82;3.70;;;;;;;7.39;68.79;96654.91;10329237;28;20484;-57
2021/12/11 10:40:55;;;;;;;9.68;5.80;;;;;;;7.52;69.66;96669.50;10329781;28;20057;-57
2021/12/11 10:45:55;;;;;;;5.68;4.20;;;;;;;7.76;70.38;96675.34;10329123;28;20556;-57
2021/12/11 10:51:03;;;;;;;10.95;7.10;;;;;;;7.96;71.09;96672.59;10327839;28;20172;-57
2021/12/11 10:56:05;;;;;;;10.68;7.57;;;;;;;8.11;68.95;96661.25;10328515;28;20068;-57
2021/12/11 11:01:18;;;;;;;6.40;4.30;;;;;;;8.06;68.16;96669.94;10328945;28;20072;-57
2021/12/11 11:06:18;;;;;;;9.57;5.95;;;;;;;7.90;69.51;96652.84;10329911;28;20562;-57
2021/12/11 11:11:21;;;;;;;12.30;7.88;;;;;;;7.83;68.54;96626.22;10328537;28;20068;-57
2021/12/11 11:16:21;;;;;;;12.88;8.68;;;;;;;7.89;70.89;96633.03;10334575;28;20068;-57
2021/12/11 11:21:28;;;;;;;7.85;5.35;;;;;;;8.06;71.73;96643.22;10335755;28;20053;-57
2021/12/11 11:26:33;;;;;;;11.93;8.20;;;;;;;7.96;70.88;96634.69;10333342;28;20048;-57
2021/12/11 11:31:36;;;;;;;15.07;10.57;;;;;;;7.83;72.63;96615.88;10334603;28;20057;-57
2021/12/11 11:36:35;;;;;;;10.10;7.60;;;;;;;7.88;72.34;96615.84;10334842;28;20457;-57
2021/12/11 11:41:56;;;;;;;18.83;11.57;;;;;;;7.80;72.60;96622.78;10333616;28;20053;-57
2021/12/11 11:46:58;;;;;;;12.38;8.55;;;;;;;7.60;72.37;96616.06;10333852;28;20057;-57
2021/12/11 11:52:05;;;;;;;13.40;9.75;;;;;;;7.25;72.79;96617.13;10334435;28;20063;-57
2021/12/11 11:57:11;;;;;;;17.30;11.45;;;;;;;7.15;73.73;96600.00;10334624;28;20073;-57
2021/12/11 12:02:16;;;;;;;16.80;10.98;;;;;;;7.06;75.01;96597.47;10333596;28;20552;-58
2021/12/11 12:07:18;;;;;;;16.05;11.40;;;;;;;6.99;74.69;96590.63;10331293;28;20061;-58
2021/12/11 12:12:17;;;;;;;25.80;15.30;;;;;;;7.07;75.78;96612.06;10332813;28;20049;-58
2021/12/11 12:17:20;;;;;;;19.42;11.70;;;;;;;6.66;75.13;96602.84;10332249;28;20049;-58
2021/12/11 12:22:21;;;;;;;17.70;12.38;;;;;;;6.55;76.12;96607.16;10322919;28;20067;-58
2021/12/11 12:27:23;;;;;;;17.38;12.90;;;;;;;6.52;76.83;96630.38;10340612;28;20167;-58
2021/12/11 12:32:29;;;;;;;19.55;12.68;;;;;;;6.39;77.52;96647.56;10327621;28;20057;-58
2021/12/11 12:37:29;;;;;;;18.98;13.98;;;;;;;6.27;77.02;96638.16;10329442;28;20080;-58
2021/12/11 12:42:37;;;;;;;;;;;;;;;6.20;77.09;96646.75;10329237;28;20548;-58
2021/12/11 12:47:41;;;;;;;18.83;11.82;;;;;;;6.09;78.86;96653.63;10331130;28;20368;-58
2021/12/11 12:52:43;;;;;;;20.95;12.73;;;;;;;5.85;78.48;96646.78;10332257;28;20061;-58
2021/12/11 12:57:46;;;;;;;21.60;15.38;;;;;;;5.73;78.86;96655.38;10333173;28;20081;-58
2021/12/11 13:02:45;;;;;;;18.70;13.40;;;;;;;5.60;80.01;96661.38;10331168;28;20068;-58
2021/12/11 13:07:48;;;;;;;28.42;18.10;;;;;;;5.56;80.63;96678.53;10330010;28;20091;-58
2021/12/11 13:12:49;;;;;;;25.83;16.38;;;;;;;5.47;80.96;96675.94;10332132;28;20471;-58
2021/12/11 13:17:51;;;;;;;34.53;21.52;;;;;;;5.30;80.63;96678.50;10330929;28;20471;-58
2021/12/11 13:22:51;;;;;;;19.50;14.32;;;;;;;5.23;81.61;96690.47;10331292;28;20057;-58
2021/12/11 13:27:53;;;;;;;53.00;31.38;;;;;;;5.03;82.07;96682.69;10332200;28;20061;-57
2021/12/11 13:32:52;;;;;;;30.92;22.88;;;;;;;4.86;82.68;96679.16;10322656;28;20080;-58
2021/12/11 13:37:52;;;;;;;57.05;28.80;;;;;;;4.78;83.45;96696.25;10291149;28;20061;-58
2021/12/11 13:42:51;;;;;;;25.02;17.52;;;;;;;4.47;84.51;96693.53;10363606;28;20056;-59
2021/12/11 13:47:52;;;;;;;48.78;32.88;;;;;;;4.54;84.88;96695.28;10372299;28;20495;-58
2021/12/11 13:52:51;;;;;;;32.35;18.58;;;;;;;4.47;84.92;96689.25;10372350;28;20473;-57
2021/12/11 13:57:51;;;;;;;30.30;21.45;;;;;;;4.49;85.69;96691.81;10372266;28;20083;-57
2021/12/11 14:02:50;;;;;;;25.08;17.02;;;;;;;4.44;86.02;96693.50;10372456;28;20074;-57
2021/12/11 14:07:50;;;;;;;23.73;16.10;;;;;;;4.24;86.28;96689.13;10372011;28;20068;-58
2021/12/11 14:12:49;;;;;;;37.70;26.35;;;;;;;4.27;86.52;96694.28;10371516;28;20068;-57
2021/12/11 14:17:49;;;;;;;30.42;19.85;;;;;;;4.31;86.48;96707.97;10371921;28;20068;-57
2021/12/11 14:22:49;;;;;;;41.55;26.52;;;;;;;4.18;86.88;96719.03;10370479;28;20137;-57
2021/12/11 14:27:50;;;;;;;41.55;26.80;;;;;;;4.25;87.13;96720.78;10362453;28;20929;-58
2021/12/11 14:32:54;;;;;;;25.70;17.27;;;;;;;4.11;86.90;96712.97;10302869;28;20109;-58
2021/12/11 14:37:53;;;;;;;32.10;22.10;;;;;;;4.23;87.14;96718.19;10290260;28;20508;-58
2021/12/11 14:42:53;;;;;;;22.10;15.07;;;;;;;4.05;87.11;96705.22;10325119;28;20057;-58
2021/12/11 14:47:53;;;;;;;27.60;18.85;;;;;;;4.11;87.43;96723.25;10319243;28;20581;-58
2021/12/11 14:52:52;;;;;;;27.25;18.33;;;;;;;4.03;87.59;96709.47;10310956;28;20080;-58
2021/12/11 14:57:52;;;;;;;33.00;21.55;;;;;;;4.08;87.40;96710.41;10293989;28;20120;-58
2021/12/11 15:02:51;;;;;;;30.25;20.85;;;;;;;4.10;87.58;96713.81;10296213;28;20072;-58
2021/12/11 15:07:51;;;;;;;44.78;29.90;;;;;;;3.96;87.59;96702.59;10295536;28;20065;-58
2021/12/11 15:12:51;;;;;;;57.45;35.53;;;;;;;4.00;87.92;96714.59;10297646;28;20080;-58
2021/12/11 15:17:50;;;;;;;45.55;29.27;;;;;;;3.83;88.03;96725.59;10312576;28;20069;-58
2021/12/11 15:22:50;;;;;;;49.35;33.33;;;;;;;3.67;88.50;96710.03;10311570;28;20069;-58
2021/12/11 15:27:50;;;;;;;35.15;25.77;;;;;;;3.68;88.71;96704.06;10296340;28;20066;-58
2021/12/11 15:32:50;;;;;;;35.42;25.55;;;;;;;3.64;88.48;96700.63;10303805;28;20068;-58
2021/12/11 15:37:49;;;;;;;34.75;23.40;;;;;;;3.57;88.51;96693.72;10335890;28;20091;-58
2021/12/11 15:42:50;;;;;;;;;;;;;;;3.62;88.70;96716.00;10336081;28;20057;-58
2021/12/11 15:47:53;;;;;;;33.15;22.40;;;;;;;3.66;88.52;96714.31;10335777;28;19957;-58
2021/12/11 15:52:54;;;;;;;30.50;20.92;;;;;;;3.67;89.00;96705.75;10334663;28;20080;-58
2021/12/11 15:57:57;;;;;;;32.42;21.17;;;;;;;3.59;88.90;96703.13;10333933;28;20144;-58
2021/12/11 16:02:57;;;;;;;28.27;18.73;;;;;;;3.66;88.59;96719.44;10333821;28;20092;-58
2021/12/11 16:07:57;;;;;;;31.42;21.42;;;;;;;3.67;88.85;96726.28;10334092;28;20064;-58
2021/12/11 16:12:56;;;;;;;29.27;19.08;;;;;;;3.56;88.79;96720.19;10326210;28;20184;-58
2021/12/11 16:17:56;;;;;;;35.63;24.17;;;;;;;3.63;88.61;96727.09;10333638;28;20067;-58
2021/12/11 16:22:56;;;;;;;35.88;24.17;;;;;;;3.70;88.55;96725.47;10332055;28;20069;-58
2021/12/11 16:28:07;;;;;;;40.13;25.50;;;;;;;3.71;88.71;96716.94;10333676;28;20072;-58
2021/12/11 16:33:07;;;;;;;35.95;22.45;;;;;;;3.76;88.54;96715.25;10332783;28;20100;-56
2021/12/11 16:38:07;;;;;;;44.17;27.42;;;;;;;3.86;88.21;96710.22;10334146;28;20134;-57
2021/12/11 16:43:19;;;;;;;40.00;27.52;;;;;;;3.91;88.17;96702.53;10333511;28;20072;-57
2021/12/11 16:48:25;;;;;;;30.85;21.10;;;;;;;3.93;88.07;96692.31;10332564;28;20492;-57
2021/12/11 16:53:29;;;;;;;29.80;17.98;;;;;;;3.94;88.18;96683.75;10333784;28;20072;-58
2021/12/11 16:58:33;;;;;;;24.98;14.82;;;;;;;3.89;87.53;96681.13;10332693;28;20516;-57
2021/12/11 17:03:33;;;;;;;26.60;17.83;;;;;;;3.93;87.72;96676.91;10333220;28;20064;-57
2021/12/11 17:08:32;;;;;;;35.03;24.25;;;;;;;3.93;87.63;96675.19;10331277;28;20080;-58
2021/12/11 17:13:31;;;;;;;34.42;22.88;;;;;;;4.00;87.75;96670.97;10332645;28;20065;-57
2021/12/11 17:18:33;;;;;;;24.27;16.10;;;;;;;3.99;87.96;96656.44;10332465;28;20077;-57
2021/12/11 17:23:33;;;;;;;22.52;15.23;;;;;;;4.15;87.56;96665.94;10332575;28;20088;-58
2021/12/11 17:28:36;;;;;;;26.40;16.45;;;;;;;4.31;87.32;96673.72;10331906;28;20091;-58
2021/12/11 17:33:35;;;;;;;29.65;17.30;;;;;;;4.34;86.98;96648.06;10331478;28;20068;-58
2021/12/11 17:38:35;;;;;;;;;;;;;;;4.46;86.74;96677.25;10333214;28;20069;-58
2021/12/11 17:43:36;;;;;;;28.23;17.77;;;;;;;4.46;86.20;96653.28;10331177;28;19979;-58
2021/12/11 17:48:35;;;;;;;30.30;19.77;;;;;;;4.42;86.34;96654.13;10332204;28;20087;-58
2021/12/11 17:53:34;;;;;;;34.28;22.73;;;;;;;4.43;85.68;96642.97;10333033;28;20069;-58
2021/12/11 17:58:37;;;;;;;30.25;19.98;;;;;;;4.38;85.91;96624.97;10329933;28;20085;-58
2021/12/11 18:03:39;;;;;;;27.67;17.83;;;;;;;4.37;86.41;96642.97;10329965;28;20072;-58
2021/12/11 18:08:38;;;;;;;27.13;17.35;;;;;;;4.38;86.37;96639.53;10331815;28;20075;-58
2021/12/11 18:13:58;;;;;;;;;;;;;;;4.41;85.81;96631.88;10330802;28;20077;-58
2021/12/11 18:19:03;;;;;;;39.40;25.20;;;;;;;4.45;85.75;96638.72;10331408;28;19956;-58
2021/12/11 18:24:04;;;;;;;35.78;23.48;;;;;;;4.43;85.73;96615.59;10337356;28;20445;-58
2021/12/11 18:29:13;;;;;;;31.77;21.00;;;;;;;4.47;85.79;96611.31;10339284;28;20056;-58
2021/12/11 18:34:14;;;;;;;40.13;26.83;;;;;;;4.51;85.88;96615.63;10337353;28;20073;-58
2021/12/11 18:39:24;;;;;;;40.65;27.58;;;;;;;4.35;85.62;96596.72;10336622;28;20496;-58
2021/12/11 18:44:24;;;;;;;42.90;27.73;;;;;;;4.19;86.49;96603.47;10339045;28;20103;-58
2021/12/11 18:49:29;;;;;;;34.83;23.90;;;;;;;4.16;86.40;96607.75;10338370;28;20095;-58
2021/12/11 18:54:31;;;;;;;30.27;20.55;;;;;;;4.15;86.41;96601.75;10338091;28;20065;-58
2021/12/11 18:59:33;;;;;;;36.50;22.83;;;;;;;4.10;86.32;96582.88;10338272;28;20076;-58
2021/12/11 19:04:35;;;;;;;34.08;22.60;;;;;;;4.04;86.72;96590.56;10338095;28;20064;-58
2021/12/11 19:09:35;;;;;;;34.10;23.00;;;;;;;4.03;87.27;96571.75;10337269;28;20523;-58
2021/12/11 19:14:37;;;;;;;33.85;20.48;;;;;;;4.05;87.04;96564.88;10335982;28;20065;-58
2021/12/11 19:19:37;;;;;;;36.72;23.88;;;;;;;4.09;86.94;96540.09;10337550;28;20087;-58
2021/12/11 19:24:37;;;;;;;50.60;33.90;;;;;;;3.72;86.79;96459.50;10336735;28;20057;-58
2021/12/11 19:29:43;;;;;;;64.88;42.97;;;;;;;4.19;86.96;96525.59;10337088;28;20072;-58
2021/12/11 19:34:43;;;;;;;73.80;48.00;;;;;;;4.21;87.30;96514.47;10336192;28;20500;-58
2021/12/11 19:39:49;;;;;;;74.07;46.28;;;;;;;4.23;87.53;96527.34;10336143;28;20111;-58
2021/12/11 19:44:48;;;;;;;57.97;36.35;;;;;;;4.22;87.38;96505.94;10336796;28;20065;-58
2021/12/11 19:49:47;;;;;;;38.03;24.13;;;;;;;4.28;87.17;96505.94;10336139;28;20093;-58
2021/12/11 19:54:50;;;;;;;49.65;32.40;;;;;;;4.28;86.83;96513.66;10335536;28;20068;-58
2021/12/11 19:59:54;;;;;;;64.72;45.38;;;;;;;4.33;86.78;96511.09;10335870;28;20104;-58
2021/12/11 20:04:57;;;;;;;72.57;49.67;;;;;;;4.34;86.28;96499.09;10335495;28;20393;-58
2021/12/11 20:10:15;;;;;;;65.43;44.33;;;;;;;4.26;86.51;96488.81;10333200;28;20079;-58
2021/12/11 20:15:16;;;;;;;86.22;60.92;;;;;;;4.17;86.69;96476.78;10335492;28;20061;-58
2021/12/11 20:20:20;;;;;;;83.40;55.70;;;;;;;4.08;86.61;96477.66;10335082;28;20053;-58
2021/12/11 20:25:19;;;;;;;79.95;55.13;;;;;;;3.99;87.16;96461.34;10335052;28;20064;-58
2021/12/11 20:30:26;;;;;;;104.03;70.78;;;;;;;4.00;87.61;96468.19;10334663;28;20076;-58
2021/12/11 20:35:28;;;;;;;102.65;68.35;;;;;;;3.99;87.63;96472.47;10308779;28;20096;-58
2021/12/11 20:40:57;;;;;;;84.07;54.40;;;;;;;3.99;87.61;96464.78;10294219;28;20065;-58
2021/12/11 20:46:00;;;;;;;64.82;41.50;;;;;;;4.02;87.59;96456.22;10288255;28;20473;-58
2021/12/11 20:51:28;;;;;;;35.92;23.90;;;;;;;3.97;87.73;96447.66;10292412;28;20080;-58
2021/12/11 20:56:29;;;;;;;50.00;32.33;;;;;;;3.95;87.67;96446.78;10290090;28;20114;-58
2021/12/11 21:01:36;;;;;;;44.75;27.85;;;;;;;3.89;87.79;96433.91;10307196;28;20076;-58
2021/12/11 21:06:41;;;;;;;43.47;27.02;;;;;;;3.87;87.63;96436.50;10333122;28;20080;-58
2021/12/11 21:11:45;;;;;;;41.88;28.33;;;;;;;3.92;87.67;96434.81;10333165;28;20072;-58
2021/12/11 21:16:53;;;;;;;41.50;25.80;;;;;;;3.96;87.75;96413.41;10333349;28;20481;-58
2021/12/11 21:22:07;;;;;;;43.22;27.75;;;;;;;3.97;87.65;96411.72;10332879;28;20068;-58
2021/12/11 21:27:11;;;;;;;35.90;23.48;;;;;;;3.98;87.73;96411.69;10333024;28;20072;-58
2021/12/11 21:32:12;;;;;;;37.75;24.13;;;;;;;3.96;88.14;96410.00;10332330;28;20069;-58
2021/12/11 21:37:15;;;;;;;36.45;23.63;;;;;;;4.00;87.51;96393.75;10331843;28;20080;-58
2021/12/11 21:42:26;;;;;;;93.95;55.95;;;;;;;4.02;87.51;96399.75;10330659;28;20072;-58
2021/12/11 21:47:28;;;;;;;72.60;44.03;;;;;;;4.04;87.20;96387.78;10330351;28;20073;-58
2021/12/11 21:52:32;;;;;;;60.00;38.10;;;;;;;4.07;87.53;96387.78;10331569;28;20068;-58
2021/12/11 21:57:31;;;;;;;56.25;35.33;;;;;;;4.12;87.57;96390.38;10331523;28;20488;-58
2021/12/11 22:02:35;;;;;;;94.63;59.72;;;;;;;4.12;87.46;96380.94;10331823;28;20091;-58
2021/12/11 22:07:37;;;;;;;43.78;26.27;;;;;;;3.92;87.95;96378.34;10331554;28;20076;-58
2021/12/11 22:12:40;;;;;;;44.28;26.77;;;;;;;3.88;88.17;96374.03;10331766;28;20061;-58
2021/12/11 22:17:40;;;;;;;35.22;21.13;;;;;;;3.75;88.50;96365.47;10331944;28;20099;-58
2021/12/11 22:22:42;;;;;;;46.30;27.88;;;;;;;3.66;88.78;96380.81;10331536;28;20065;-58
2021/12/11 22:27:42;;;;;;;40.20;21.60;;;;;;;3.61;88.95;96367.97;10331431;28;20562;-57
2021/12/11 22:32:41;;;;;;;;;;;;;;;3.57;89.30;96363.69;10331442;28;20496;-58
2021/12/11 22:37:42;;;;;;;39.83;22.48;;;;;;;3.53;89.05;96340.56;10331184;28;20380;-58
2021/12/11 22:42:43;;;;;;;46.20;26.52;;;;;;;3.60;89.33;96360.28;10331330;28;20061;-58
2021/12/11 22:47:46;;;;;;;53.03;30.42;;;;;;;3.65;89.73;96371.41;10330752;28;20060;-58
2021/12/11 22:52:48;;;;;;;39.42;21.98;;;;;;;3.63;89.33;96380.78;10329289;28;20073;-58
2021/12/11 22:57:47;;;;;;;40.17;22.63;;;;;;;3.59;89.30;96381.66;10330814;28;20107;-58
2021/12/11 23:02:46;;;;;;;;;;;;;;;3.46;89.71;96379.88;10331512;28;20491;-57
2021/12/11 23:07:49;;;;;;;62.50;37.08;;;;;;;3.40;90.22;96355.91;10330924;28;20289;-57
2021/12/11 23:12:52;;;;;;;57.97;32.50;;;;;;;3.29;90.29;96367.81;10338459;28;20065;-57
2021/12/11 23:17:56;;;;;;;56.90;32.95;;;;;;;3.22;90.79;96358.41;10334519;28;20064;-57
2021/12/11 23:23:00;;;;;;;46.42;26.23;;;;;;;3.40;90.78;96355.91;10333950;28;20057;-57
2021/12/11 23:28:08;;;;;;;49.55;27.95;;;;;;;3.50;90.55;96350.84;10333341;28;20061;-56
2021/12/11 23:33:16;;;;;;;59.05;32.67;;;;;;;3.50;91.09;96354.25;10336926;28;20497;-57
2021/12/11 23:38:33;;;;;;;58.92;33.20;;;;;;;3.45;91.24;96353.38;10336676;28;20481;-56